createdAt,value
2023-03-31T00:02:13.406Z,13.15
2023-03-31T00:05:01.644Z,14.40
2023-03-31T00:07:49.576Z,13.87
2023-03-31T00:10:37.165Z,16.63
2023-03-31T00:13:25.044Z,17.33
2023-03-31T00:16:12.876Z,14.35
2023-03-31T00:19:02.256Z,15.52
2023-03-31T00:21:51.610Z,14.48
2023-03-31T00:24:39.005Z,15.00
2023-03-31T00:27:28.281Z,15.35
2023-03-31T00:30:16.211Z,15.30
2023-03-31T00:33:03.498Z,16.10
2023-03-31T00:35:55.675Z,14.25
2023-03-31T00:38:46.554Z,19.73
2023-03-31T00:41:33.788Z,17.00
2023-03-31T00:44:24.932Z,17.77
2023-03-31T00:47:16.978Z,21.55
2023-03-31T00:50:04.353Z,18.02
2023-03-31T00:52:58.041Z,18.27
2023-03-31T00:55:50.106Z,19.00
2023-03-31T00:58:43.689Z,18.30
2023-03-31T01:01:31.627Z,19.35
2023-03-31T01:04:22.622Z,17.48
2023-03-31T01:07:19.275Z,17.90
2023-03-31T01:10:10.262Z,17.43
2023-03-31T01:12:59.024Z,19.00
2023-03-31T01:15:46.341Z,18.10
2023-03-31T01:18:34.986Z,17.98
2023-03-31T01:22:14.030Z,15.32
2023-03-31T01:25:29.216Z,16.48
2023-03-31T01:28:27.832Z,17.53
2023-03-31T01:31:53.363Z,16.73
2023-03-31T01:35:12.284Z,17.27
2023-03-31T01:38:41.388Z,17.92
2023-03-31T01:41:42.628Z,17.03
2023-03-31T01:44:42.056Z,15.07
2023-03-31T01:47:40.517Z,14.10
2023-03-31T01:50:32.800Z,14.90
2023-03-31T01:53:26.035Z,15.00
2023-03-31T01:56:17.557Z,14.73
2023-03-31T01:59:12.018Z,15.15
2023-03-31T02:02:04.438Z,12.82
2023-03-31T02:04:59.277Z,15.23
2023-03-31T02:07:51.228Z,11.68
2023-03-31T02:10:40.496Z,11.87
2023-03-31T02:13:30.192Z,11.35
2023-03-31T02:16:24.540Z,13.13
2023-03-31T02:19:14.145Z,13.88
2023-03-31T02:22:03.621Z,10.88
2023-03-31T02:24:53.501Z,10.35
2023-03-31T02:27:44.466Z,11.75
2023-03-31T02:30:39.174Z,8.98
2023-03-31T02:33:28.799Z,10.50
2023-03-31T02:36:16.456Z,9.65
2023-03-31T02:39:07.988Z,9.25
2023-03-31T02:41:55.781Z,8.35
2023-03-31T02:44:43.208Z,9.93
2023-03-31T02:47:30.663Z,10.63
2023-03-31T02:50:19.797Z,8.65
2023-03-31T02:53:13.370Z,7.73
2023-03-31T02:56:11.963Z,9.15
2023-03-31T02:59:21.331Z,6.50
2023-03-31T03:02:18.833Z,7.55
2023-03-31T03:05:20.322Z,7.75
2023-03-31T03:08:33.758Z,6.93
2023-03-31T03:11:27.254Z,8.13
2023-03-31T03:14:24.888Z,7.53
2023-03-31T03:17:16.922Z,8.80
2023-03-31T03:20:09.521Z,7.30
2023-03-31T03:22:58.604Z,8.52
2023-03-31T03:25:46.986Z,8.77
2023-03-31T03:28:34.635Z,9.18
2023-03-31T03:31:24.079Z,9.40
2023-03-31T03:34:11.827Z,9.68
2023-03-31T03:36:59.571Z,8.43
2023-03-31T03:39:48.577Z,8.55
2023-03-31T03:42:36.670Z,8.40
2023-03-31T03:45:24.306Z,9.23
2023-03-31T03:48:11.215Z,8.98
2023-03-31T03:51:01.452Z,7.88
2023-03-31T03:53:48.221Z,10.77
2023-03-31T03:56:37.174Z,8.65
2023-03-31T03:59:25.210Z,9.15
2023-03-31T04:02:13.113Z,10.65
2023-03-31T04:05:00.828Z,10.93
2023-03-31T04:07:47.927Z,9.57
2023-03-31T04:10:36.377Z,11.02
2023-03-31T04:13:25.055Z,11.07
2023-03-31T04:16:12.383Z,12.77
2023-03-31T04:19:03.752Z,14.98
2023-03-31T04:21:58.826Z,13.90
2023-03-31T04:24:52.850Z,13.95
2023-03-31T04:27:46.748Z,14.70
2023-03-31T04:30:39.972Z,9.25
2023-03-31T04:33:26.891Z,14.65
2023-03-31T04:36:17.908Z,12.97
2023-03-31T04:39:05.590Z,11.70
2023-03-31T04:41:52.856Z,14.43
2023-03-31T04:44:40.160Z,12.57
2023-03-31T04:47:29.286Z,11.48
2023-03-31T04:50:17.325Z,15.65
2023-03-31T04:53:05.438Z,13.65
2023-03-31T04:55:53.060Z,12.77
2023-03-31T04:58:41.102Z,11.20
2023-03-31T05:01:28.487Z,12.33
2023-03-31T05:04:17.732Z,13.75
2023-03-31T05:07:05.860Z,10.02
2023-03-31T05:09:53.429Z,13.90
2023-03-31T05:12:41.594Z,15.47
2023-03-31T05:15:28.840Z,13.80
2023-03-31T05:18:17.640Z,12.95
2023-03-31T05:21:17.374Z,13.88
2023-03-31T05:24:05.025Z,13.18
2023-03-31T05:26:53.639Z,16.98
2023-03-31T05:29:41.579Z,15.73
2023-03-31T05:32:29.317Z,15.68
2023-03-31T05:35:17.829Z,14.63
2023-03-31T05:38:07.862Z,14.07
2023-03-31T05:40:55.141Z,15.10
2023-03-31T05:43:43.500Z,14.57
2023-03-31T05:46:31.006Z,10.98
2023-03-31T05:49:19.093Z,12.57
2023-03-31T05:52:07.305Z,12.15
2023-03-31T05:54:56.546Z,13.37
2023-03-31T05:57:43.792Z,16.10
2023-03-31T06:00:32.105Z,12.98
2023-03-31T06:03:22.764Z,13.00
2023-03-31T06:06:13.276Z,14.27
2023-03-31T06:09:00.861Z,12.95
2023-03-31T06:11:50.598Z,11.95
2023-03-31T06:14:38.842Z,12.95
2023-03-31T06:17:27.816Z,14.48
2023-03-31T06:20:27.335Z,13.82
2023-03-31T06:23:15.834Z,12.63
2023-03-31T06:26:04.705Z,17.00
2023-03-31T06:28:54.196Z,15.15
2023-03-31T06:31:41.974Z,14.23
2023-03-31T06:34:30.245Z,14.75
2023-03-31T06:37:17.946Z,13.43
2023-03-31T06:40:06.644Z,13.90
2023-03-31T06:42:54.380Z,15.20
2023-03-31T06:45:44.373Z,15.45
2023-03-31T06:48:32.449Z,13.38
2023-03-31T06:51:20.647Z,15.45
2023-03-31T06:54:08.808Z,14.75
2023-03-31T06:56:55.911Z,19.45
2023-03-31T06:59:44.261Z,14.90
2023-03-31T07:02:33.340Z,13.93
2023-03-31T07:05:26.996Z,15.85
2023-03-31T07:08:14.488Z,14.45
2023-03-31T07:11:02.871Z,15.83
2023-03-31T07:13:50.104Z,16.70
2023-03-31T07:16:38.415Z,15.10
2023-03-31T07:19:26.983Z,15.20
2023-03-31T07:22:15.144Z,16.70
2023-03-31T07:25:03.472Z,16.13
2023-03-31T07:27:50.919Z,17.45
2023-03-31T07:30:38.171Z,15.27
2023-03-31T07:33:25.776Z,16.63
2023-03-31T07:36:14.863Z,14.88
2023-03-31T07:39:07.219Z,16.40
2023-03-31T07:41:54.292Z,17.77
2023-03-31T07:44:42.100Z,15.60
2023-03-31T07:47:30.761Z,15.40
2023-03-31T07:50:20.879Z,17.90
2023-03-31T07:53:12.443Z,15.38
2023-03-31T07:56:02.572Z,13.57
2023-03-31T07:58:51.335Z,16.35
2023-03-31T08:01:38.984Z,18.30
2023-03-31T08:04:27.336Z,17.23
2023-03-31T08:07:16.589Z,18.38
2023-03-31T08:10:05.974Z,17.95
2023-03-31T08:12:53.813Z,19.17
2023-03-31T08:15:41.748Z,17.03
2023-03-31T08:18:29.254Z,15.77
2023-03-31T08:21:16.796Z,19.05
2023-03-31T08:24:04.049Z,17.98
2023-03-31T08:26:53.793Z,14.90
2023-03-31T08:29:42.136Z,17.33
2023-03-31T08:32:30.183Z,17.52
2023-03-31T08:35:18.194Z,18.52
2023-03-31T08:38:06.549Z,18.87
2023-03-31T08:41:00.755Z,15.95
2023-03-31T08:43:57.006Z,16.80
2023-03-31T08:46:45.662Z,15.43
2023-03-31T08:49:41.464Z,15.23
2023-03-31T08:52:35.035Z,15.30
2023-03-31T08:55:32.483Z,12.18
2023-03-31T08:58:31.357Z,10.23
2023-03-31T09:01:27.560Z,14.30
2023-03-31T09:04:26.033Z,10.60
2023-03-31T09:07:20.250Z,12.87
2023-03-31T09:10:24.933Z,11.32
2023-03-31T09:13:38.971Z,14.27
2023-03-31T09:16:32.228Z,12.77
2023-03-31T09:19:25.708Z,12.55
2023-03-31T09:22:19.722Z,13.15
2023-03-31T09:25:11.834Z,13.05
2023-03-31T09:28:01.343Z,12.73
2023-03-31T09:30:50.798Z,16.45
2023-03-31T09:33:43.982Z,14.02
2023-03-31T09:36:31.117Z,13.70
2023-03-31T09:39:18.697Z,15.85
2023-03-31T09:42:07.146Z,15.60
2023-03-31T09:44:55.173Z,15.57
2023-03-31T09:47:45.101Z,16.30
2023-03-31T09:50:46.527Z,21.92
2023-03-31T09:53:39.686Z,16.37
2023-03-31T09:56:50.646Z,18.05
2023-03-31T09:59:38.227Z,18.52
2023-03-31T10:02:42.218Z,19.60
2023-03-31T10:05:32.412Z,18.02
2023-03-31T10:08:26.597Z,18.98
2023-03-31T10:11:14.735Z,17.60
2023-03-31T10:14:06.249Z,16.95
2023-03-31T10:16:57.068Z,17.17
2023-03-31T10:19:50.262Z,17.00
2023-03-31T10:22:46.336Z,18.02
2023-03-31T10:25:36.550Z,15.65
2023-03-31T10:28:24.517Z,16.52
2023-03-31T10:31:12.113Z,17.40
2023-03-31T10:34:00.202Z,16.43
2023-03-31T10:36:50.135Z,14.65
2023-03-31T10:39:39.420Z,15.70
2023-03-31T10:42:29.808Z,16.03
2023-03-31T10:45:37.293Z,17.13
2023-03-31T10:48:29.102Z,16.33
2023-03-31T10:51:26.991Z,13.93
2023-03-31T10:54:14.170Z,16.23
2023-03-31T10:57:05.615Z,15.70
2023-03-31T11:00:13.045Z,16.33
2023-03-31T11:03:32.831Z,16.05
2023-03-31T11:06:27.323Z,17.92
2023-03-31T11:09:32.966Z,15.18
2023-03-31T11:12:26.065Z,16.60
2023-03-31T11:15:23.175Z,17.08
2023-03-31T11:18:44.424Z,16.92
2023-03-31T11:21:43.999Z,15.80
2023-03-31T11:25:05.952Z,16.58
2023-03-31T11:28:22.784Z,15.70
2023-03-31T11:31:28.901Z,15.90
2023-03-31T11:34:29.713Z,13.82
2023-03-31T11:37:41.789Z,12.98
2023-03-31T11:40:47.531Z,11.20
2023-03-31T11:43:39.870Z,12.43
2023-03-31T11:46:37.295Z,11.00
2023-03-31T11:49:27.643Z,11.07
2023-03-31T11:52:18.438Z,13.30
2023-03-31T11:55:15.474Z,12.18
2023-03-31T11:58:07.399Z,12.30
2023-03-31T12:01:03.269Z,10.75
2023-03-31T12:04:02.252Z,10.38
2023-03-31T12:06:51.326Z,11.25
2023-03-31T12:09:51.541Z,11.73
2023-03-31T12:12:45.017Z,12.63
2023-03-31T12:15:38.899Z,12.32
2023-03-31T12:18:29.288Z,10.65
2023-03-31T12:21:18.744Z,12.98
2023-03-31T12:24:08.302Z,12.52
2023-03-31T12:27:06.203Z,14.35
2023-03-31T12:29:58.245Z,12.43
2023-03-31T12:32:49.025Z,13.50
2023-03-31T12:35:45.719Z,13.25
2023-03-31T12:38:50.612Z,13.00
2023-03-31T12:41:45.932Z,14.55
2023-03-31T12:44:50.886Z,16.10
2023-03-31T12:47:57.608Z,13.70
2023-03-31T12:51:05.990Z,9.25
2023-03-31T12:54:08.767Z,8.02
2023-03-31T12:57:17.302Z,11.93
2023-03-31T13:00:22.924Z,11.30
2023-03-31T13:03:41.657Z,11.43
2023-03-31T13:06:52.581Z,12.37
2023-03-31T13:09:53.109Z,8.90
2023-03-31T13:12:40.922Z,10.00
2023-03-31T13:15:30.057Z,9.70
2023-03-31T13:18:22.237Z,8.53
2023-03-31T13:21:12.349Z,8.70
2023-03-31T13:24:02.745Z,8.10
2023-03-31T13:26:54.126Z,7.57
2023-03-31T13:29:45.048Z,6.22
2023-03-31T13:32:32.104Z,6.10
2023-03-31T13:35:25.857Z,5.75
2023-03-31T13:38:24.426Z,5.15
2023-03-31T13:41:33.778Z,6.00
2023-03-31T13:44:44.234Z,4.97
2023-03-31T13:48:01.298Z,6.18
2023-03-31T13:51:02.201Z,6.97
2023-03-31T13:54:20.138Z,5.30
2023-03-31T13:57:29.382Z,5.05
2023-03-31T14:00:27.315Z,6.68
2023-03-31T14:03:23.033Z,9.18
2023-03-31T14:06:20.874Z,5.05
2023-03-31T14:09:10.824Z,8.60
2023-03-31T14:12:00.004Z,7.70
2023-03-31T14:14:46.807Z,5.13
2023-03-31T14:17:38.909Z,8.02
2023-03-31T14:20:36.305Z,3.67
2023-03-31T14:23:36.737Z,3.30
2023-03-31T14:26:39.345Z,3.78
2023-03-31T14:29:32.585Z,3.83
2023-03-31T14:32:29.765Z,3.40
2023-03-31T14:35:32.744Z,2.72
2023-03-31T14:38:22.243Z,3.10
2023-03-31T14:41:21.277Z,2.55
2023-03-31T14:44:09.348Z,3.47
2023-03-31T14:46:59.208Z,3.17
2023-03-31T14:49:46.649Z,3.00
2023-03-31T14:52:35.894Z,2.58
2023-03-31T14:55:31.663Z,2.03
2023-03-31T14:58:29.716Z,2.35
2023-03-31T15:01:21.400Z,2.55
2023-03-31T15:04:12.116Z,2.20
2023-03-31T15:07:05.024Z,3.08
2023-03-31T15:09:54.301Z,2.30
2023-03-31T15:12:42.427Z,2.10
2023-03-31T15:15:29.911Z,2.55
2023-03-31T15:18:17.793Z,3.95
2023-03-31T15:21:06.038Z,2.97
2023-03-31T15:23:54.487Z,3.85
2023-03-31T15:26:49.600Z,3.50
2023-03-31T15:29:39.788Z,2.70
2023-03-31T15:32:28.695Z,3.13
2023-03-31T15:35:23.548Z,2.80
2023-03-31T15:38:13.876Z,3.45
2023-03-31T15:41:02.286Z,2.53
2023-03-31T15:44:04.354Z,3.20
2023-03-31T15:46:59.579Z,3.20
2023-03-31T15:49:54.603Z,2.80
2023-03-31T15:52:49.803Z,3.03
2023-03-31T15:58:58.218Z,5.10
2023-03-31T16:01:47.297Z,3.17
2023-03-31T16:04:35.447Z,3.53
2023-03-31T16:07:27.145Z,4.10
2023-03-31T16:10:19.702Z,4.72
2023-03-31T16:13:09.705Z,4.97
2023-03-31T16:16:01.056Z,4.93
2023-03-31T16:18:51.148Z,6.13
2023-03-31T16:21:41.288Z,5.85
2023-03-31T16:24:33.014Z,5.45
2023-03-31T16:27:20.650Z,6.63
2023-03-31T16:30:13.692Z,6.53
2023-03-31T16:33:04.494Z,6.20
2023-03-31T16:35:56.342Z,5.70
2023-03-31T16:38:44.098Z,5.20
2023-03-31T16:41:32.027Z,7.20
2023-03-31T16:44:19.952Z,6.50
2023-03-31T16:47:07.714Z,6.72
2023-03-31T16:49:57.054Z,6.07
2023-03-31T16:52:45.438Z,6.43
2023-03-31T16:55:32.727Z,5.57
2023-03-31T16:58:20.173Z,6.30
2023-03-31T17:01:08.432Z,5.78
2023-03-31T17:03:56.938Z,5.95
2023-03-31T17:06:46.430Z,5.53
2023-03-31T17:09:34.267Z,5.05
2023-03-31T17:12:21.704Z,7.18
2023-03-31T17:15:11.268Z,5.10
2023-03-31T17:17:59.192Z,6.43
2023-03-31T17:20:46.945Z,5.38
2023-03-31T17:23:36.721Z,7.25
2023-03-31T17:26:24.455Z,7.30
2023-03-31T17:29:13.465Z,5.17
2023-03-31T17:32:03.064Z,6.22
2023-03-31T17:34:51.055Z,6.18
2023-03-31T17:37:39.435Z,8.25
2023-03-31T17:40:28.552Z,7.93
2023-03-31T17:43:16.588Z,7.05
2023-03-31T17:46:05.239Z,7.50
2023-03-31T17:48:53.902Z,8.75
2023-03-31T17:51:41.736Z,9.87
2023-03-31T17:54:29.442Z,9.55
2023-03-31T17:57:18.848Z,8.25
2023-03-31T18:00:09.045Z,12.68
2023-03-31T18:02:59.271Z,8.93
2023-03-31T18:05:47.263Z,11.38
2023-03-31T18:08:35.510Z,10.95
2023-03-31T18:11:23.856Z,11.10
2023-03-31T18:14:13.952Z,7.97
2023-03-31T18:17:02.090Z,9.68
2023-03-31T18:19:50.093Z,12.55
2023-03-31T18:22:37.455Z,11.20
2023-03-31T18:25:25.035Z,11.48
2023-03-31T18:28:13.256Z,12.45
2023-03-31T18:31:04.541Z,12.93
2023-03-31T18:33:56.529Z,12.13
2023-03-31T18:36:44.657Z,10.00
2023-03-31T18:39:31.488Z,14.05
2023-03-31T18:42:25.043Z,14.63
2023-03-31T18:45:13.456Z,12.80
2023-03-31T18:48:02.563Z,14.20
2023-03-31T18:50:52.101Z,15.67
2023-03-31T18:53:39.832Z,14.85
2023-03-31T18:56:27.359Z,16.45
2023-03-31T18:59:14.919Z,15.07
2023-03-31T19:02:02.477Z,16.65
2023-03-31T19:04:51.606Z,16.48
2023-03-31T19:07:39.536Z,15.27
2023-03-31T19:10:28.614Z,14.88
2023-03-31T19:13:17.147Z,12.80
2023-03-31T19:16:04.777Z,14.10
2023-03-31T19:18:53.788Z,13.15
2023-03-31T19:21:43.626Z,16.40
2023-03-31T19:24:31.100Z,15.30
2023-03-31T19:27:19.095Z,13.48
2023-03-31T19:30:07.932Z,16.23
2023-03-31T19:32:55.204Z,14.50
2023-03-31T19:35:43.991Z,15.18
2023-03-31T19:38:36.522Z,15.30
2023-03-31T19:41:24.312Z,14.45
2023-03-31T19:44:11.324Z,15.18
2023-03-31T19:46:58.822Z,15.20
2023-03-31T19:49:46.706Z,14.82
2023-03-31T19:52:34.401Z,12.52
2023-03-31T19:55:23.178Z,12.65
2023-03-31T19:58:11.585Z,12.90
2023-03-31T20:00:59.728Z,14.82
2023-03-31T20:03:53.063Z,13.98
2023-03-31T20:06:41.704Z,13.35
2023-03-31T20:09:29.433Z,12.95
2023-03-31T20:12:18.817Z,12.75
2023-03-31T20:15:07.801Z,14.32
2023-03-31T20:17:56.993Z,11.33
2023-03-31T20:20:45.708Z,14.70
2023-03-31T20:23:34.190Z,12.02
2023-03-31T20:26:24.845Z,12.40
2023-03-31T20:29:14.321Z,12.57
2023-03-31T20:32:02.741Z,11.45
2023-03-31T20:34:50.401Z,12.52
2023-03-31T20:37:37.826Z,11.20
2023-03-31T20:40:25.359Z,10.32
2023-03-31T20:43:13.090Z,9.35
2023-03-31T20:46:04.606Z,9.65
2023-03-31T20:48:55.024Z,7.67
2023-03-31T20:51:42.949Z,8.27
2023-03-31T20:54:30.786Z,8.47
2023-03-31T20:57:17.929Z,8.43
2023-03-31T21:00:07.381Z,9.38
2023-03-31T21:02:55.711Z,8.75
2023-03-31T21:05:44.601Z,9.73
2023-03-31T21:08:32.531Z,7.38
2023-03-31T21:11:20.470Z,7.72
2023-03-31T21:14:09.229Z,9.38
2023-03-31T21:16:56.923Z,9.95
2023-03-31T21:19:46.649Z,11.00
2023-03-31T21:22:33.953Z,10.70
2023-03-31T21:25:21.418Z,9.02
2023-03-31T21:28:08.602Z,10.20
2023-03-31T21:30:57.998Z,7.85
2023-03-31T21:33:46.290Z,9.35
2023-03-31T21:36:35.508Z,8.50
2023-03-31T21:39:23.235Z,9.65
2023-03-31T21:42:11.174Z,9.27
2023-03-31T21:44:59.235Z,8.47
2023-03-31T21:47:46.971Z,7.60
2023-03-31T21:50:34.799Z,8.18
2023-03-31T21:53:24.363Z,10.30
2023-03-31T21:56:11.934Z,9.00
2023-03-31T21:58:59.622Z,7.10
2023-03-31T22:01:46.443Z,8.75
2023-03-31T22:04:34.778Z,9.00
2023-03-31T22:07:22.517Z,7.30
2023-03-31T22:10:12.521Z,7.90
2023-03-31T22:13:00.018Z,10.38
2023-03-31T22:15:46.985Z,10.27
2023-03-31T22:18:34.169Z,9.82
2023-03-31T22:21:24.263Z,10.93
2023-03-31T22:24:13.570Z,11.73
2023-03-31T22:27:02.897Z,12.10
2023-03-31T22:29:50.652Z,14.25
2023-03-31T22:32:38.207Z,12.80
2023-03-31T22:35:26.096Z,14.05
2023-03-31T22:38:14.164Z,12.90
2023-03-31T22:41:01.600Z,9.43
2023-03-31T22:43:51.605Z,9.27
2023-03-31T22:46:39.829Z,9.90
2023-03-31T22:49:27.281Z,11.90
2023-03-31T22:52:14.665Z,11.32
2023-03-31T22:55:01.958Z,10.75
2023-03-31T22:57:49.431Z,10.00
2023-03-31T23:00:38.506Z,10.60
2023-03-31T23:03:26.411Z,8.75
2023-03-31T23:06:14.140Z,8.40
2023-03-31T23:09:01.875Z,11.02
2023-03-31T23:11:48.682Z,8.70
2023-03-31T23:14:36.319Z,8.60
2023-03-31T23:17:25.674Z,9.77
2023-03-31T23:20:14.557Z,11.65
2023-03-31T23:23:02.486Z,8.90
2023-03-31T23:25:50.114Z,8.95
2023-03-31T23:28:38.708Z,8.98
2023-03-31T23:31:29.256Z,9.13
2023-03-31T23:34:18.459Z,9.32
2023-03-31T23:37:06.680Z,10.45
2023-03-31T23:39:54.518Z,8.88
2023-03-31T23:42:41.934Z,8.95
2023-03-31T23:45:30.024Z,7.75
2023-03-31T23:48:18.128Z,7.13
2023-03-31T23:51:09.545Z,8.95
2023-03-31T23:53:57.791Z,8.43
2023-03-31T23:56:45.616Z,7.15
2023-03-31T23:59:33.261Z,5.43
